createdAt,value
2019-05-20T00:01:51.729Z,11.03
2019-05-20T00:04:20.226Z,9.90
2019-05-20T00:06:48.775Z,11.00
2019-05-20T00:09:17.406Z,11.07
2019-05-20T00:11:46.196Z,10.90
2019-05-20T00:14:14.665Z,9.10
2019-05-20T00:16:43.154Z,10.47
2019-05-20T00:19:11.637Z,11.43
2019-05-20T00:21:40.205Z,11.00
2019-05-20T00:24:08.673Z,10.10
2019-05-20T00:26:37.239Z,10.63
2019-05-20T00:29:05.700Z,9.90
2019-05-20T00:31:34.159Z,11.47
2019-05-20T00:34:02.639Z,11.17
2019-05-20T00:36:31.111Z,9.90
2019-05-20T00:39:13.390Z,10.57
2019-05-20T00:41:41.919Z,11.70
2019-05-20T00:44:10.393Z,10.33
2019-05-20T00:46:38.865Z,11.47
2019-05-20T00:49:07.490Z,10.90
2019-05-20T00:51:36.029Z,9.60
2019-05-20T00:54:04.591Z,10.97
2019-05-20T00:56:33.122Z,10.00
2019-05-20T00:59:02.059Z,11.73
2019-05-20T01:01:30.616Z,10.60
2019-05-20T01:03:59.080Z,10.40
2019-05-20T01:06:27.560Z,12.20
2019-05-20T01:08:56.029Z,11.50
2019-05-20T01:11:24.580Z,11.00
2019-05-20T01:13:53.107Z,10.23
2019-05-20T01:16:23.135Z,10.67
2019-05-20T01:18:51.691Z,10.53
2019-05-20T01:21:20.223Z,12.57
2019-05-20T01:23:48.747Z,10.80
2019-05-20T01:26:18.818Z,11.10
2019-05-20T01:28:47.316Z,10.83
2019-05-20T01:31:15.839Z,10.30
2019-05-20T01:33:44.323Z,11.37
2019-05-20T01:36:12.857Z,11.27
2019-05-20T01:38:41.367Z,11.50
2019-05-20T01:41:09.826Z,11.83
2019-05-20T01:43:38.304Z,10.37
2019-05-20T01:46:06.830Z,11.83
2019-05-20T01:48:35.305Z,11.43
2019-05-20T01:51:03.799Z,10.90
2019-05-20T01:53:32.398Z,11.60
2019-05-20T01:56:00.892Z,11.33
2019-05-20T01:58:29.367Z,11.93
2019-05-20T02:00:59.525Z,11.50
2019-05-20T02:03:31.542Z,10.97
2019-05-20T02:05:58.348Z,11.83
2019-05-20T02:08:26.886Z,11.20
2019-05-20T02:10:56.755Z,12.60
2019-05-20T02:13:27.062Z,11.27
2019-05-20T02:15:59.964Z,11.13
2019-05-20T02:18:29.720Z,10.90
2019-05-20T02:20:58.252Z,12.00
2019-05-20T02:23:26.736Z,12.20
2019-05-20T02:25:55.276Z,10.87
2019-05-20T02:28:23.764Z,10.73
2019-05-20T02:30:56.505Z,11.90
2019-05-20T02:33:22.505Z,12.30
2019-05-20T02:35:50.974Z,11.90
2019-05-20T02:38:19.484Z,11.83
2019-05-20T02:40:48.188Z,11.37
2019-05-20T02:43:16.857Z,12.73
2019-05-20T02:45:45.372Z,10.47
2019-05-20T02:48:14.134Z,11.90
2019-05-20T02:50:42.587Z,11.90
2019-05-20T02:53:11.060Z,12.50
2019-05-20T02:55:39.601Z,11.80
2019-05-20T02:58:08.124Z,11.43
2019-05-20T03:00:36.597Z,12.37
2019-05-20T03:03:05.064Z,12.30
2019-05-20T03:05:33.557Z,11.90
2019-05-20T03:08:02.029Z,12.50
2019-05-20T03:10:30.520Z,11.87
2019-05-20T03:12:59.066Z,12.37
2019-05-20T03:15:27.601Z,11.20
2019-05-20T03:17:56.066Z,12.27
2019-05-20T03:20:24.551Z,12.97
2019-05-20T03:22:53.021Z,12.20
2019-05-20T03:25:21.566Z,12.23
2019-05-20T03:27:50.041Z,14.13
2019-05-20T03:30:19.649Z,11.90
2019-05-20T03:32:48.221Z,12.63
2019-05-20T03:35:18.051Z,13.83
2019-05-20T03:37:46.512Z,13.10
2019-05-20T03:40:15.241Z,13.10
2019-05-20T03:42:43.768Z,12.77
2019-05-20T03:45:12.690Z,12.40
2019-05-20T03:47:41.155Z,12.87
2019-05-20T03:50:09.989Z,12.37
2019-05-20T03:52:38.453Z,12.07
2019-05-20T03:55:09.959Z,12.47
2019-05-20T03:57:38.436Z,12.20
2019-05-20T04:00:07.512Z,12.93
2019-05-20T04:02:35.994Z,13.70
2019-05-20T04:05:05.134Z,12.30
2019-05-20T04:07:33.653Z,12.90
2019-05-20T04:10:02.135Z,13.20
2019-05-20T04:12:30.678Z,12.43
2019-05-20T04:14:59.154Z,13.87
2019-05-20T04:17:27.653Z,12.90
2019-05-20T04:19:56.109Z,14.00
2019-05-20T04:22:24.663Z,13.93
2019-05-20T04:24:53.197Z,13.70
2019-05-20T04:27:21.665Z,14.53
2019-05-20T04:29:50.218Z,14.97
2019-05-20T04:32:18.678Z,13.27
2019-05-20T04:34:47.423Z,13.10
2019-05-20T04:37:15.929Z,13.70
2019-05-20T04:39:44.387Z,14.13
2019-05-20T04:42:12.858Z,13.93
2019-05-20T04:44:42.830Z,14.10
2019-05-20T04:47:11.381Z,13.77
2019-05-20T04:49:40.754Z,14.30
2019-05-20T04:52:09.300Z,14.40
2019-05-20T04:54:38.133Z,13.97
2019-05-20T04:57:07.543Z,13.90
2019-05-20T04:59:36.084Z,14.10
2019-05-20T05:02:04.562Z,15.53
2019-05-20T05:04:33.020Z,18.77
2019-05-20T05:07:01.658Z,15.23
2019-05-20T05:09:30.189Z,16.50
2019-05-20T05:11:58.800Z,16.10
2019-05-20T05:14:27.357Z,17.67
2019-05-20T05:16:55.831Z,18.67
2019-05-20T05:19:24.298Z,16.97
2019-05-20T05:21:52.799Z,16.87
2019-05-20T05:24:21.406Z,17.70
2019-05-20T05:26:49.896Z,17.20
2019-05-20T05:29:18.588Z,16.80
2019-05-20T05:31:47.108Z,17.47
2019-05-20T05:34:15.625Z,16.73
2019-05-20T05:36:45.033Z,16.27
2019-05-20T05:39:13.594Z,17.10
2019-05-20T05:41:43.049Z,17.00
2019-05-20T05:44:11.531Z,16.90
2019-05-20T05:46:40.008Z,16.97
2019-05-20T05:49:08.634Z,16.93
2019-05-20T05:51:38.014Z,17.13
2019-05-20T05:54:06.532Z,17.00
2019-05-20T05:56:35.027Z,17.97
2019-05-20T05:59:03.615Z,16.70
2019-05-20T06:01:32.090Z,16.27
2019-05-20T06:04:00.598Z,16.13
2019-05-20T06:06:29.158Z,17.27
2019-05-20T06:09:00.416Z,16.93
2019-05-20T06:11:28.987Z,16.40
2019-05-20T06:13:57.495Z,17.00
2019-05-20T06:16:36.015Z,16.10
2019-05-20T06:18:56.313Z,16.10
2019-05-20T06:21:24.823Z,16.30
2019-05-20T06:23:53.337Z,16.33
2019-05-20T06:26:21.839Z,17.37
2019-05-20T06:28:51.853Z,16.83
2019-05-20T06:31:20.310Z,16.00
2019-05-20T06:33:48.864Z,15.60
2019-05-20T06:36:26.632Z,17.07
2019-05-20T06:38:51.157Z,17.03
2019-05-20T06:41:19.627Z,16.17
2019-05-20T06:43:48.093Z,15.73
2019-05-20T06:46:16.560Z,16.47
2019-05-20T06:48:45.041Z,14.33
2019-05-20T06:51:13.598Z,16.40
2019-05-20T06:53:42.054Z,14.97
2019-05-20T06:56:10.523Z,15.13
2019-05-20T06:58:38.987Z,15.17
2019-05-20T07:01:07.474Z,15.27
2019-05-20T07:03:35.937Z,14.87
2019-05-20T07:06:04.578Z,15.47
2019-05-20T07:08:33.070Z,15.90
2019-05-20T07:11:01.608Z,15.77
2019-05-20T07:13:30.097Z,14.77
2019-05-20T07:15:58.574Z,14.00
2019-05-20T07:18:27.589Z,15.87
2019-05-20T07:20:56.171Z,14.67
2019-05-20T07:23:24.688Z,14.60
2019-05-20T07:25:53.277Z,14.67
2019-05-20T07:28:22.104Z,13.70
2019-05-20T07:30:50.677Z,13.60
2019-05-20T07:33:19.207Z,14.73
2019-05-20T07:35:47.675Z,13.83
2019-05-20T07:38:16.163Z,14.70
2019-05-20T07:40:44.636Z,13.93
2019-05-20T07:43:13.178Z,14.20
2019-05-20T07:45:42.291Z,14.33
2019-05-20T07:48:10.984Z,13.60
2019-05-20T07:50:41.203Z,14.53
2019-05-20T07:53:11.968Z,14.40
2019-05-20T07:55:49.363Z,14.60
2019-05-20T07:58:20.068Z,14.93
2019-05-20T08:00:48.619Z,13.60
2019-05-20T08:03:17.218Z,14.83
2019-05-20T08:05:45.755Z,13.70
2019-05-20T08:08:14.280Z,14.00
2019-05-20T08:10:42.808Z,13.23
2019-05-20T08:13:11.420Z,13.87
2019-05-20T08:15:39.957Z,14.07
2019-05-20T08:18:08.446Z,13.57
2019-05-20T08:20:36.918Z,13.27
2019-05-20T08:23:05.409Z,15.10
2019-05-20T08:25:33.954Z,14.13
2019-05-20T08:28:02.472Z,13.10
2019-05-20T08:30:33.937Z,15.50
2019-05-20T08:33:02.606Z,14.90
2019-05-20T08:35:31.239Z,13.90
2019-05-20T08:37:59.984Z,14.40
2019-05-20T08:40:28.456Z,14.40
2019-05-20T08:42:56.996Z,13.47
2019-05-20T08:45:25.558Z,14.27
2019-05-20T08:47:54.093Z,13.37
2019-05-20T08:50:22.584Z,13.63
2019-05-20T08:52:51.627Z,13.83
2019-05-20T08:55:20.267Z,13.20
2019-05-20T08:57:48.828Z,12.33
2019-05-20T09:00:24.010Z,13.27
2019-05-20T09:02:52.761Z,14.30
2019-05-20T09:05:21.373Z,14.13
2019-05-20T09:08:02.440Z,12.30
2019-05-20T09:10:21.443Z,10.43
2019-05-20T09:12:49.977Z,12.50
2019-05-20T09:15:18.786Z,12.10
2019-05-20T09:17:47.400Z,12.00
2019-05-20T09:20:16.695Z,12.07
2019-05-20T09:22:45.300Z,12.10
2019-05-20T09:25:14.374Z,12.07
2019-05-20T09:27:43.078Z,12.70
2019-05-20T09:30:13.597Z,999.90
2019-05-20T09:32:43.202Z,999.90
2019-05-20T09:35:12.119Z,999.90
2019-05-20T09:37:40.731Z,999.90
2019-05-20T09:40:10.774Z,999.90
2019-05-20T09:42:41.118Z,999.90
2019-05-20T09:45:09.937Z,999.90
2019-05-20T09:47:38.622Z,999.90
2019-05-20T09:50:07.425Z,999.90
2019-05-20T09:52:36.050Z,999.90
2019-05-20T09:55:08.050Z,999.90
2019-05-20T09:57:37.768Z,999.90
2019-05-20T10:00:33.457Z,999.90
2019-05-20T10:03:02.764Z,999.90
2019-05-20T10:05:31.750Z,999.90
2019-05-20T10:08:00.446Z,999.90
2019-05-20T10:10:28.916Z,999.90
2019-05-20T10:13:06.281Z,999.90
2019-05-20T10:15:36.764Z,999.90
2019-05-20T10:18:05.528Z,999.90
2019-05-20T10:20:34.092Z,999.90
2019-05-20T10:23:02.677Z,999.90
2019-05-20T10:25:31.279Z,999.90
2019-05-20T10:27:59.809Z,999.90
2019-05-20T10:30:28.308Z,999.90
2019-05-20T10:32:56.852Z,999.90
2019-05-20T10:35:26.355Z,999.90
2019-05-20T10:37:55.011Z,999.90
2019-05-20T10:40:23.621Z,999.90
2019-05-20T10:42:52.113Z,999.90
2019-05-20T10:45:20.673Z,999.90
2019-05-20T10:47:49.170Z,999.90
2019-05-20T10:50:17.777Z,999.90
2019-05-20T10:52:46.337Z,999.90
2019-05-20T10:55:14.950Z,999.90
2019-05-20T10:57:43.680Z,999.90
2019-05-20T11:00:14.121Z,999.90
2019-05-20T11:02:42.584Z,999.90
2019-05-20T11:05:11.329Z,999.90
2019-05-20T11:07:39.899Z,999.90
2019-05-20T11:10:08.980Z,999.90
2019-05-20T11:12:37.590Z,999.90
2019-05-20T11:15:07.230Z,999.90
2019-05-20T11:17:36.375Z,999.90
2019-05-20T11:20:07.275Z,999.90
2019-05-20T11:22:35.839Z,999.90
2019-05-20T11:25:06.738Z,999.90
2019-05-20T11:27:35.293Z,999.90
2019-05-20T11:30:08.074Z,999.90
2019-05-20T11:32:36.741Z,999.90
2019-05-20T11:35:29.115Z,999.90
2019-05-20T11:37:57.596Z,999.90
2019-05-20T11:40:26.062Z,999.90
2019-05-20T11:42:54.541Z,999.90
2019-05-20T11:45:23.451Z,999.90
2019-05-20T11:47:52.018Z,999.90
2019-05-20T11:50:20.623Z,999.90
2019-05-20T11:52:49.291Z,999.90
2019-05-20T11:55:17.961Z,999.90
2019-05-20T11:57:46.431Z,999.90
2019-05-20T12:00:15.717Z,999.90
2019-05-20T12:02:44.244Z,999.90
2019-05-20T12:05:12.991Z,999.90
2019-05-20T12:07:41.597Z,999.90
2019-05-20T12:10:10.847Z,999.90
2019-05-20T12:12:39.389Z,999.90
2019-05-20T12:15:09.610Z,999.90
2019-05-20T12:17:38.562Z,999.90
2019-05-20T12:20:11.526Z,999.90
2019-05-20T12:22:39.361Z,999.90
2019-05-20T12:25:08.229Z,999.90
2019-05-20T12:27:36.789Z,999.90
2019-05-20T12:30:08.338Z,999.90
2019-05-20T12:32:36.869Z,999.90
2019-05-20T12:35:07.523Z,999.90
2019-05-20T12:37:36.006Z,999.90
2019-05-20T12:40:07.875Z,999.90
2019-05-20T12:42:36.766Z,999.90
2019-05-20T12:45:07.257Z,999.90
2019-05-20T12:47:35.743Z,999.90
2019-05-20T12:50:07.265Z,999.90
2019-05-20T12:52:35.874Z,999.90
2019-05-20T12:55:09.226Z,999.90
2019-05-20T12:57:36.337Z,999.90
2019-05-20T13:00:11.932Z,999.90
2019-05-20T13:02:42.610Z,999.90
2019-05-20T13:05:11.823Z,999.90
2019-05-20T13:07:40.740Z,999.90
2019-05-20T13:10:26.800Z,999.90
2019-05-20T13:12:40.605Z,999.90
2019-05-20T13:15:10.413Z,999.90
2019-05-20T13:17:43.799Z,999.90
2019-05-20T13:20:09.351Z,999.90
2019-05-20T13:22:37.839Z,999.90
2019-05-20T13:25:07.088Z,999.90
2019-05-20T13:27:35.869Z,999.90
2019-05-20T13:30:07.231Z,999.90
2019-05-20T13:32:35.735Z,999.90
2019-05-20T13:35:06.354Z,999.90
2019-05-20T13:37:37.193Z,999.90
2019-05-20T13:40:06.582Z,999.90
2019-05-20T13:42:35.131Z,999.90
2019-05-20T13:45:04.307Z,999.90
2019-05-20T13:47:32.909Z,999.90
2019-05-20T13:50:01.468Z,999.90
2019-05-20T13:52:30.017Z,999.90
2019-05-20T13:54:58.518Z,999.90
2019-05-20T13:57:27.139Z,999.90
2019-05-20T13:59:55.716Z,999.90
2019-05-20T14:02:24.760Z,999.90
2019-05-20T14:04:53.270Z,999.90
2019-05-20T14:07:21.818Z,999.90
2019-05-20T14:09:51.855Z,999.90
2019-05-20T14:12:20.401Z,999.90
2019-05-20T14:14:48.876Z,999.90
2019-05-20T14:17:17.367Z,999.90
2019-05-20T14:19:45.846Z,999.90
2019-05-20T14:22:15.525Z,999.90
2019-05-20T14:24:44.107Z,999.90
2019-05-20T14:27:12.619Z,999.90
2019-05-20T14:29:41.191Z,999.90
2019-05-20T14:32:09.739Z,999.90
2019-05-20T14:34:39.870Z,999.90
2019-05-20T14:37:08.483Z,999.90
2019-05-20T14:39:37.215Z,999.90
2019-05-20T14:42:05.798Z,999.90
2019-05-20T14:44:34.715Z,999.90
2019-05-20T14:47:03.223Z,999.90
2019-05-20T14:49:31.794Z,999.90
2019-05-20T14:52:03.080Z,999.90
2019-05-20T14:54:31.643Z,999.90
2019-05-20T14:57:00.172Z,999.90
2019-05-20T14:59:28.659Z,999.90
2019-05-20T15:02:00.753Z,999.90
2019-05-20T15:04:29.262Z,999.90
2019-05-20T15:07:00.828Z,999.90
2019-05-20T15:09:29.351Z,999.90
2019-05-20T15:11:57.853Z,999.90
2019-05-20T15:14:26.408Z,999.90
2019-05-20T15:16:55.972Z,999.90
2019-05-20T15:19:26.003Z,999.90
2019-05-20T15:21:54.523Z,999.90
2019-05-20T15:24:23.013Z,999.90
2019-05-20T15:26:51.644Z,999.90
2019-05-20T15:29:28.236Z,999.90
2019-05-20T15:31:51.044Z,999.90
2019-05-20T15:34:19.664Z,999.90
2019-05-20T15:36:48.307Z,999.90
2019-05-20T15:39:16.799Z,999.90
2019-05-20T15:41:45.399Z,999.90
2019-05-20T15:44:13.961Z,999.90
2019-05-20T15:46:42.494Z,999.90
2019-05-20T15:49:11.051Z,999.90
2019-05-20T15:51:39.552Z,999.90
2019-05-20T15:54:08.065Z,999.90
2019-05-20T15:56:36.613Z,999.90
2019-05-20T15:59:05.113Z,999.90
2019-05-20T16:01:33.588Z,999.90
2019-05-20T16:04:02.258Z,999.90
2019-05-20T16:06:31.011Z,999.90
2019-05-20T16:08:59.518Z,999.90
2019-05-20T16:11:28.201Z,999.90
2019-05-20T16:13:57.054Z,999.90
2019-05-20T16:16:25.578Z,999.90
2019-05-20T16:18:54.084Z,999.90
2019-05-20T16:21:22.602Z,999.90
2019-05-20T16:23:51.408Z,999.90
2019-05-20T16:26:20.094Z,999.90
2019-05-20T16:28:48.630Z,999.90
2019-05-20T16:31:17.137Z,999.90
2019-05-20T16:33:45.665Z,999.90
2019-05-20T16:36:14.252Z,999.90
2019-05-20T16:38:42.804Z,999.90
2019-05-20T16:41:11.270Z,999.90
2019-05-20T16:43:40.216Z,999.90
2019-05-20T16:46:08.717Z,999.90
2019-05-20T16:48:37.300Z,999.90
2019-05-20T16:51:05.825Z,999.90
2019-05-20T16:53:34.387Z,999.90
2019-05-20T16:56:04.054Z,999.90
2019-05-20T16:58:32.536Z,999.90
2019-05-20T17:01:01.392Z,999.90
2019-05-20T17:03:29.958Z,999.90
2019-05-20T17:05:58.572Z,999.90
2019-05-20T17:08:27.074Z,999.90
2019-05-20T17:10:55.556Z,999.90
2019-05-20T17:13:24.044Z,999.90
2019-05-20T17:15:52.547Z,999.90
2019-05-20T17:18:21.156Z,999.90
2019-05-20T17:20:50.767Z,999.90
2019-05-20T17:23:19.292Z,999.90
2019-05-20T17:25:50.653Z,999.90
2019-05-20T17:28:18.001Z,999.90
2019-05-20T17:30:47.202Z,999.90
2019-05-20T17:33:15.700Z,999.90
2019-05-20T17:35:44.268Z,999.90
2019-05-20T17:38:13.324Z,999.90
2019-05-20T17:40:42.012Z,28.00
2019-05-20T17:43:10.617Z,33.87
2019-05-20T17:45:39.102Z,999.90
2019-05-20T17:48:10.101Z,999.90
2019-05-20T17:50:38.703Z,999.90
2019-05-20T17:53:07.278Z,999.90
2019-05-20T17:55:35.891Z,999.90
2019-05-20T17:58:05.235Z,706.37
2019-05-20T18:00:33.960Z,681.27
2019-05-20T18:03:02.549Z,614.03
2019-05-20T18:05:33.655Z,594.57
2019-05-20T18:08:02.739Z,558.03
2019-05-20T18:10:31.286Z,535.67
2019-05-20T18:13:01.779Z,570.67
2019-05-20T18:15:30.100Z,537.97
2019-05-20T18:17:58.565Z,568.80
2019-05-20T18:20:27.214Z,593.10
2019-05-20T18:22:55.738Z,571.67
2019-05-20T18:25:24.415Z,542.37
2019-05-20T18:27:53.107Z,602.20
2019-05-20T18:30:21.729Z,611.87
2019-05-20T18:32:50.331Z,558.97
2019-05-20T18:35:18.816Z,611.70
2019-05-20T18:37:47.299Z,578.40
2019-05-20T18:40:16.485Z,636.00
2019-05-20T18:42:47.757Z,602.57
2019-05-20T18:45:17.050Z,731.10
2019-05-20T18:47:46.702Z,644.50
2019-05-20T18:50:16.156Z,684.47
2019-05-20T18:52:44.639Z,670.17
2019-05-20T18:55:14.662Z,683.33
2019-05-20T18:57:43.135Z,714.83
2019-05-20T19:00:12.466Z,763.43
2019-05-20T19:02:41.007Z,683.73
2019-05-20T19:05:09.862Z,770.83
2019-05-20T19:07:38.374Z,740.97
2019-05-20T19:10:07.777Z,765.33
2019-05-20T19:12:37.609Z,841.00
2019-05-20T19:15:07.649Z,802.37
2019-05-20T19:17:36.278Z,888.80
2019-05-20T19:20:06.169Z,866.83
2019-05-20T19:22:34.721Z,851.83
2019-05-20T19:25:05.004Z,863.53
2019-05-20T19:27:33.941Z,880.00
2019-05-20T19:30:02.488Z,797.37
2019-05-20T19:32:31.570Z,760.63
2019-05-20T19:35:00.081Z,999.90
2019-05-20T19:37:29.228Z,999.90
2019-05-20T19:40:12.653Z,999.90
2019-05-20T19:43:02.211Z,999.90
2019-05-20T19:45:40.458Z,999.90
2019-05-20T19:48:10.594Z,999.90
2019-05-20T19:50:39.157Z,999.90
2019-05-20T19:53:07.719Z,999.90
2019-05-20T19:55:37.441Z,999.90
2019-05-20T19:58:06.011Z,999.90
2019-05-20T20:00:34.517Z,999.90
2019-05-20T20:03:10.078Z,999.90
2019-05-20T20:05:47.535Z,999.90
2019-05-20T20:08:16.191Z,999.90
2019-05-20T20:10:44.889Z,999.90
2019-05-20T20:13:13.595Z,999.90
2019-05-20T20:15:42.937Z,999.90
2019-05-20T20:18:11.448Z,999.90
2019-05-20T20:20:39.991Z,999.90
2019-05-20T20:23:08.621Z,999.90
2019-05-20T20:25:37.163Z,999.90
2019-05-20T20:28:05.763Z,999.90
2019-05-20T20:30:34.972Z,999.90
2019-05-20T20:33:05.185Z,999.90
2019-05-20T20:35:38.017Z,582.13
2019-05-20T20:38:04.109Z,614.67
2019-05-20T20:40:32.741Z,699.27
2019-05-20T20:43:02.619Z,716.10
2019-05-20T20:45:31.339Z,692.07
2019-05-20T20:47:59.837Z,678.70
2019-05-20T20:50:33.250Z,749.43
2019-05-20T20:53:01.902Z,794.07
2019-05-20T20:55:31.012Z,799.53
2019-05-20T20:57:59.652Z,797.80
2019-05-20T21:00:29.062Z,817.67
2019-05-20T21:02:57.561Z,876.43
2019-05-20T21:05:27.945Z,922.27
2019-05-20T21:07:56.460Z,890.97
2019-05-20T21:10:24.985Z,887.40
2019-05-20T21:12:54.326Z,880.37
2019-05-20T21:15:22.863Z,856.73
2019-05-20T21:17:51.551Z,787.47
2019-05-20T21:20:21.477Z,999.90
2019-05-20T21:22:50.534Z,728.23
2019-05-20T21:25:19.044Z,870.60
2019-05-20T21:27:47.661Z,999.90
2019-05-20T21:30:16.245Z,999.90
2019-05-20T21:32:44.790Z,999.90
2019-05-20T21:35:13.357Z,999.90
2019-05-20T21:37:41.899Z,999.90
2019-05-20T21:40:10.632Z,999.90
2019-05-20T21:42:39.111Z,999.90
2019-05-20T21:45:07.840Z,999.90
2019-05-20T21:47:38.513Z,999.90
2019-05-20T21:50:07.897Z,999.90
2019-05-20T21:52:36.360Z,999.90
2019-05-20T21:55:10.271Z,999.90
2019-05-20T21:57:38.809Z,999.90
2019-05-20T22:00:12.637Z,999.90
2019-05-20T22:02:41.264Z,999.90
2019-05-20T22:05:10.011Z,999.90
2019-05-20T22:07:38.658Z,999.90
2019-05-20T22:10:07.571Z,999.90
2019-05-20T22:12:36.147Z,999.90
2019-05-20T22:15:06.588Z,999.90
2019-05-20T22:17:35.148Z,999.90
2019-05-20T22:20:04.586Z,999.90
2019-05-20T22:22:34.784Z,999.90
2019-05-20T22:25:03.506Z,999.90
2019-05-20T22:27:31.987Z,745.93
2019-05-20T22:30:00.535Z,818.80
2019-05-20T22:32:29.103Z,815.80
2019-05-20T22:34:58.257Z,904.33
2019-05-20T22:37:26.743Z,926.10
2019-05-20T22:39:55.314Z,933.60
2019-05-20T22:42:23.876Z,881.17
2019-05-20T22:44:53.311Z,942.47
2019-05-20T22:47:21.816Z,999.90
2019-05-20T22:49:50.298Z,999.90
2019-05-20T22:52:18.936Z,999.90
2019-05-20T22:54:47.476Z,999.90
2019-05-20T22:57:15.947Z,999.90
2019-05-20T22:59:44.504Z,999.90
2019-05-20T23:02:12.978Z,999.90
2019-05-20T23:04:41.471Z,999.90
2019-05-20T23:07:09.966Z,999.90
2019-05-20T23:09:38.462Z,999.90
2019-05-20T23:12:06.935Z,999.90
2019-05-20T23:14:35.484Z,999.90
2019-05-20T23:17:04.030Z,999.90
2019-05-20T23:19:32.570Z,999.90
2019-05-20T23:22:01.137Z,999.90
2019-05-20T23:24:29.637Z,999.90
2019-05-20T23:26:58.109Z,999.90
2019-05-20T23:29:26.645Z,999.90
2019-05-20T23:31:55.233Z,999.90
2019-05-20T23:34:23.783Z,999.90
2019-05-20T23:36:52.271Z,999.90
2019-05-20T23:39:20.771Z,999.90
2019-05-20T23:41:49.242Z,999.90
2019-05-20T23:44:17.731Z,999.90
2019-05-20T23:46:46.202Z,797.80
2019-05-20T23:49:14.661Z,786.67
2019-05-20T23:51:43.150Z,855.40
2019-05-20T23:54:11.607Z,897.33
2019-05-20T23:56:40.106Z,867.67
2019-05-20T23:59:08.594Z,944.73
